Time;durP1;ratioP1;P1;durP2;ratioP2;P2;SDS_P1;SDS_P2;PMS_P1;PMS_P2;Temp;Humidity;BMP_temperature;BMP_pressure;BME280_temperature;BME280_humidity;BME280_pressure;Samples;Min_cycle;Max_cycle;Signal;HPM_P1;HPM_P2
2021/08/15 00:00:13;;;;;;;;;;;;;;;17.03;73.68;101726.41;5135088;27;20023;-36
2021/08/15 00:02:40;;;;;;;11.80;6.28;;;;;;;16.77;75.76;101708.00;5134509;27;19948;-36
2021/08/15 00:05:07;;;;;;;13.88;6.60;;;;;;;16.79;76.49;101714.03;5134599;27;20020;-35
2021/08/15 00:07:33;;;;;;;12.13;5.95;;;;;;;16.75;76.16;101716.44;5134669;27;20369;-36
2021/08/15 00:09:58;;;;;;;9.30;6.18;;;;;;;16.75;76.26;101710.16;5134893;27;20023;-36
2021/08/15 00:12:24;;;;;;;13.27;6.47;;;;;;;16.67;76.19;101693.06;5134573;27;20027;-37
2021/08/15 00:14:49;;;;;;;;;;;;;;;16.94;74.21;101700.59;5133785;27;20023;-36
2021/08/15 00:17:14;;;;;;;11.57;6.13;;;;;;;16.76;75.93;101704.44;5134918;27;19903;-36
2021/08/15 00:19:40;;;;;;;13.18;6.95;;;;;;;16.79;76.64;101714.03;5134333;27;20273;-36
2021/08/15 00:22:06;;;;;;;11.27;6.68;;;;;;;16.78;75.74;101707.72;5134340;27;20438;-36
2021/08/15 00:24:34;;;;;;;;;;;;;;;16.95;74.21;101708.53;5134538;27;20106;-36
2021/08/15 00:26:59;;;;;;;9.13;5.90;;;;;;;16.76;75.80;101717.28;5134934;27;19949;-36
2021/08/15 00:29:25;;;;;;;;;;;;;;;16.94;73.79;101726.00;5134366;27;20015;-35
2021/08/15 00:31:50;;;;;;;10.05;6.43;;;;;;;16.70;76.02;101695.31;5134516;27;19950;-36
2021/08/15 00:34:15;;;;;;;;;;;;;;;16.95;74.04;101714.00;5134465;27;20417;-37
2021/08/15 00:36:41;;;;;;;10.70;5.80;;;;;;;16.73;76.21;101716.69;5134428;27;19956;-36
2021/08/15 00:39:06;;;;;;;;;;;;;;;16.90;74.35;101710.38;5134737;27;20038;-37
2021/08/15 00:41:31;;;;;;;9.83;6.30;;;;;;;16.68;76.58;101710.28;5134256;27;19903;-37
2021/08/15 00:44:00;;;;;;;12.63;7.30;;;;;;;16.60;76.97;101692.44;5134396;27;20265;-37
2021/08/15 00:46:26;;;;;;;12.13;7.28;;;;;;;16.62;77.04;101698.47;5134130;27;20027;-37
2021/08/15 00:48:51;;;;;;;11.60;6.55;;;;;;;16.63;77.05;101710.22;5134411;27;20299;-36
2021/08/15 00:51:16;;;;;;;;;;;;;;;16.82;75.06;101697.13;5134844;28;20055;-37
2021/08/15 00:53:42;;;;;;;8.67;6.40;;;;;;;16.68;76.95;101700.19;5133838;28;19904;-37
2021/08/15 00:56:08;;;;;;;;;;;;;;;16.86;74.63;101701.84;5134792;27;20023;-37
2021/08/15 00:58:35;;;;;;;11.23;6.47;;;;;;;16.56;77.00;101696.75;5134246;27;20339;-37
2021/08/15 01:01:01;;;;;;;10.10;7.10;;;;;;;16.53;77.18;101693.69;5134759;28;20026;-37
2021/08/15 01:03:26;;;;;;;10.02;6.35;;;;;;;16.53;76.72;101697.22;5134032;27;20015;-36
2021/08/15 01:05:53;;;;;;;10.82;6.40;;;;;;;16.53;77.36;101699.13;5134012;27;20516;-37
2021/08/15 01:08:18;;;;;;;10.88;6.65;;;;;;;16.47;76.78;101684.59;5133667;27;20023;-37
2021/08/15 01:10:43;;;;;;;11.67;6.50;;;;;;;16.48;76.64;101686.25;5134037;27;20080;-36
2021/08/15 01:13:10;;;;;;;10.75;7.07;;;;;;;16.53;77.42;101690.94;5133508;27;20265;-37
2021/08/15 01:15:36;;;;;;;9.50;6.78;;;;;;;16.46;77.59;101682.94;5132069;28;20031;-37
2021/08/15 01:18:16;;;;;;;11.65;7.10;;;;;;;16.48;77.98;101675.31;5134114;27;20019;-37
2021/08/15 01:20:42;;;;;;;10.15;6.65;;;;;;;16.45;77.68;101673.09;5136325;27;20019;-37
2021/08/15 01:23:07;;;;;;;11.02;7.03;;;;;;;16.41;78.07;101666.50;5137437;27;20030;-37
2021/08/15 01:25:32;;;;;;;;;;;;;;;16.63;75.73;101661.88;5137852;27;20023;-36
2021/08/15 01:27:57;;;;;;;11.80;7.00;;;;;;;16.40;77.70;101653.94;5137590;27;19907;-36
2021/08/15 01:30:26;;;;;;;;;;;;;;;16.66;75.66;101668.75;5138013;27;20019;-37
2021/08/15 01:32:51;;;;;;;10.95;6.30;;;;;;;16.41;77.59;101664.59;5137832;27;20001;-37
2021/08/15 01:35:16;;;;;;;12.33;7.50;;;;;;;16.36;77.66;101666.41;5137681;27;20463;-37
2021/08/15 01:37:42;;;;;;;11.50;7.30;;;;;;;16.33;78.21;101669.63;5137557;27;20704;-37
2021/08/15 01:40:08;;;;;;;11.40;6.80;;;;;;;16.33;77.99;101658.72;5137726;27;20754;-37
2021/08/15 01:42:33;;;;;;;12.23;7.60;;;;;;;16.31;78.13;101658.16;5137844;27;20098;-37
2021/08/15 01:44:59;;;;;;;11.30;7.75;;;;;;;16.28;78.45;101654.00;5136989;27;20019;-36
2021/08/15 01:47:28;;;;;;;;;;;;;;;16.45;76.51;101660.28;5137959;27;20034;-37
2021/08/15 01:49:53;;;;;;;11.93;6.72;;;;;;;16.29;78.20;101652.09;5137181;27;19963;-37
2021/08/15 01:52:19;;;;;;;10.63;6.53;;;;;;;16.10;78.73;101638.69;5137729;27;20490;-37
2021/08/15 01:54:45;;;;;;;13.55;6.80;;;;;;;16.16;78.23;101658.72;5137427;27;20051;-37
2021/08/15 01:57:10;;;;;;;15.45;8.13;;;;;;;16.04;78.79;101636.16;5137062;27;20106;-37
2021/08/15 01:59:35;;;;;;;12.85;7.38;;;;;;;16.05;78.55;101627.72;5136734;27;20019;-36
2021/08/15 02:02:01;;;;;;;;;;;;;;;16.33;76.58;101647.78;5137367;27;20030;-37
2021/08/15 02:04:26;;;;;;;11.88;7.80;;;;;;;16.04;78.12;101626.06;5137593;27;20354;-36
2021/08/15 02:06:51;;;;;;;13.10;7.35;;;;;;;16.15;78.15;101638.81;5137173;27;20031;-36
2021/08/15 02:09:16;;;;;;;;;;;;;;;16.25;77.28;101637.28;5137307;27;20056;-37
2021/08/15 02:11:42;;;;;;;13.17;6.67;;;;;;;15.93;78.35;101625.06;5136830;27;19907;-36
2021/08/15 02:14:07;;;;;;;12.30;7.23;;;;;;;15.95;78.73;101622.91;5136507;27;20317;-37
2021/08/15 02:16:33;;;;;;;10.07;6.75;;;;;;;15.72;78.12;101595.81;5137220;27;20252;-36
2021/08/15 02:18:58;;;;;;;;;;;;;;;16.12;76.57;101628.38;5137102;27;20034;-37
2021/08/15 02:21:23;;;;;;;10.90;7.47;;;;;;;15.93;78.84;101605.16;5136961;27;19903;-36
2021/08/15 02:23:48;;;;;;;;;;;;;;;16.10;76.45;101613.31;5137072;27;20108;-37
2021/08/15 02:26:14;;;;;;;9.97;7.00;;;;;;;15.87;78.68;101601.53;5136631;27;19916;-37
2021/08/15 02:28:39;;;;;;;13.82;8.07;;;;;;;15.86;78.83;101612.66;5136759;27;20364;-37
2021/08/15 02:31:04;;;;;;;12.43;8.07;;;;;;;15.89;79.07;101612.19;5136455;27;20031;-36
2021/08/15 02:33:30;;;;;;;14.68;8.45;;;;;;;15.82;79.02;101595.16;5135214;27;20054;-37
2021/08/15 02:35:56;;;;;;;10.77;7.82;;;;;;;15.79;78.99;101606.56;5136262;27;20169;-37
2021/08/15 02:38:23;;;;;;;12.20;7.70;;;;;;;15.82;78.92;101590.53;5136214;27;20023;-36
2021/08/15 02:40:48;;;;;;;;;;;;;;;16.03;77.17;101599.03;5136997;27;20023;-36
2021/08/15 02:43:13;;;;;;;10.80;7.73;;;;;;;15.76;78.52;101586.06;5136070;27;19907;-36
2021/08/15 02:45:38;;;;;;;11.93;8.35;;;;;;;15.78;78.90;101603.00;5136127;27;20269;-37
2021/08/15 02:48:04;;;;;;;11.90;8.17;;;;;;;15.78;78.95;101599.47;5136094;27;20023;-37
2021/08/15 02:50:29;;;;;;;14.02;8.05;;;;;;;15.71;79.29;101588.69;5135780;27;20253;-36
2021/08/15 02:52:55;;;;;;;15.02;8.02;;;;;;;15.72;79.66;101584.09;5136061;27;20105;-36
2021/08/15 02:55:20;;;;;;;;;;;;;;;15.90;77.49;101592.84;5136812;27;20389;-36
2021/08/15 02:57:45;;;;;;;16.03;9.00;;;;;;;15.63;79.34;101570.84;5135651;27;20366;-36
2021/08/15 03:00:11;;;;;;;;;;;;;;;15.87;77.24;101576.16;5136514;27;20075;-36
2021/08/15 03:02:37;;;;;;;13.27;9.27;;;;;;;15.73;78.97;101577.56;5135811;27;19957;-36
2021/08/15 03:05:04;;;;;;;15.00;9.50;;;;;;;15.72;79.89;101589.53;5135780;27;20063;-37
2021/08/15 03:07:29;;;;;;;12.52;9.18;;;;;;;15.66;79.23;101575.84;5136466;27;20019;-36
2021/08/15 03:09:54;;;;;;;12.77;9.33;;;;;;;15.72;79.71;101575.91;5135360;27;20130;-36
2021/08/15 03:12:20;;;;;;;11.55;9.27;;;;;;;15.68;80.12;101568.22;5136186;27;20249;-36
2021/08/15 03:14:45;;;;;;;;;;;;;;;15.86;77.86;101571.75;5136054;27;20385;-37
2021/08/15 03:17:11;;;;;;;14.73;9.43;;;;;;;15.78;79.59;101559.38;5136376;27;19903;-36
2021/08/15 03:19:37;;;;;;;;;;;;;;;15.88;77.64;101566.91;5136658;27;20315;-36
2021/08/15 03:22:03;;;;;;;13.52;9.27;;;;;;;15.81;79.42;101560.75;5136013;27;19903;-37
2021/08/15 03:24:28;;;;;;;12.27;9.80;;;;;;;15.74;80.46;101560.13;5135407;27;20046;-37
2021/08/15 03:26:54;;;;;;;13.53;9.63;;;;;;;15.76;79.70;101564.25;5135902;27;20050;-36
2021/08/15 03:29:19;;;;;;;;;;;;;;;15.92;78.39;101565.31;5135766;27;20146;-37
2021/08/15 03:31:45;;;;;;;13.93;9.50;;;;;;;15.68;80.24;101556.50;5135116;27;19911;-36
2021/08/15 03:34:14;;;;;;;16.63;10.70;;;;;;;15.57;80.79;101552.75;5134343;27;20023;-36
2021/08/15 03:36:40;;;;;;;13.30;9.77;;;;;;;15.64;81.12;101564.31;5133412;28;20026;-36
2021/08/15 03:39:06;;;;;;;21.60;10.88;;;;;;;15.58;80.77;101565.28;5132854;28;20029;-36
2021/08/15 03:41:32;;;;;;;16.35;10.77;;;;;;;15.58;80.60;101573.47;5133988;27;20019;-37
2021/08/15 03:43:57;;;;;;;;;;;;;;;15.78;78.66;101575.75;5133836;27;20470;-36
2021/08/15 03:46:23;;;;;;;14.95;10.68;;;;;;;15.68;80.17;101570.94;5134099;27;19908;-34
2021/08/15 03:48:48;;;;;;;16.17;10.55;;;;;;;15.68;80.68;101581.84;5134103;27;20408;-34
2021/08/15 03:51:14;;;;;;;14.90;10.38;;;;;;;15.59;81.20;101580.56;5134020;27;20015;-34
2021/08/15 03:53:39;;;;;;;;;;;;;;;15.70;79.04;101576.97;5134176;27;20019;-34
2021/08/15 03:56:04;;;;;;;18.77;12.00;;;;;;;15.54;81.49;101566.03;5134507;28;19904;-34
2021/08/15 03:58:30;;;;;;;16.40;12.33;;;;;;;15.56;81.85;101564.69;5134017;28;20355;-34
2021/08/15 04:00:56;;;;;;;;;;;;;;;15.73;79.64;101569.38;5133334;28;20114;-34
2021/08/15 04:03:21;;;;;;;15.63;12.05;;;;;;;15.62;81.96;101568.34;5134211;27;19904;-34
2021/08/15 04:05:46;;;;;;;;;;;;;;;15.78;80.23;101577.66;5134534;27;20443;-34
2021/08/15 04:08:12;;;;;;;16.08;11.82;;;;;;;15.69;80.02;101564.41;5133636;28;19907;-34
2021/08/15 04:10:38;;;;;;;18.60;13.45;;;;;;;15.62;82.13;101558.28;5134169;27;20023;-34
2021/08/15 04:13:03;;;;;;;;;;;;;;;15.77;80.04;101560.47;5134465;27;20109;-34
2021/08/15 04:15:28;;;;;;;20.05;13.77;;;;;;;15.60;82.01;101571.31;5133292;27;19930;-34
2021/08/15 04:17:54;;;;;;;20.92;12.95;;;;;;;15.52;82.38;101549.94;5134075;27;20102;-34
2021/08/15 04:20:20;;;;;;;19.80;13.13;;;;;;;15.58;82.05;101565.28;5133810;27;20023;-34
2021/08/15 04:22:45;;;;;;;19.75;13.85;;;;;;;15.60;82.92;101565.84;5133399;27;20047;-34
2021/08/15 04:25:11;;;;;;;18.02;14.27;;;;;;;15.74;82.52;101571.03;5133954;28;20065;-34
2021/08/15 04:27:37;;;;;;;16.70;12.43;;;;;;;15.77;82.30;101571.38;5133157;27;20067;-34
2021/08/15 04:30:04;;;;;;;22.33;14.80;;;;;;;15.78;82.17;101569.47;5133884;27;20019;-34
2021/08/15 04:32:29;;;;;;;24.35;13.63;;;;;;;15.84;82.23;101560.28;5095440;27;1090720;-34
2021/08/15 04:34:55;;;;;;;19.40;12.80;;;;;;;15.72;81.86;101535.84;5134070;27;20035;-34
2021/08/15 04:37:20;;;;;;;;;;;;;;;15.92;80.55;101552.50;5134816;27;20038;-34
2021/08/15 04:39:45;;;;;;;17.58;11.98;;;;;;;15.76;82.10;101555.22;5134692;27;19998;-34
2021/08/15 04:42:11;;;;;;;18.27;12.90;;;;;;;15.81;82.08;101555.31;5133841;27;20454;-34
2021/08/15 04:44:36;;;;;;;17.58;12.63;;;;;;;15.78;82.42;101562.09;5134323;27;20027;-34
2021/08/15 04:47:02;;;;;;;20.02;12.80;;;;;;;15.82;82.77;101563.25;5134002;27;20447;-34
2021/08/15 04:49:27;;;;;;;;;;;;;;;15.95;80.82;101556.63;5134307;27;20043;-34
2021/08/15 04:51:54;;;;;;;15.87;12.03;;;;;;;15.93;82.70;101553.34;5134148;28;19919;-34
2021/08/15 04:54:23;;;;;;;20.70;13.02;;;;;;;15.86;82.77;101549.94;5132585;27;20318;-34
2021/08/15 04:56:49;;;;;;;22.50;12.60;;;;;;;15.81;81.50;101541.69;5134022;27;20019;-34
2021/08/15 04:59:14;;;;;;;16.70;12.35;;;;;;;16.01;82.20;101543.91;5133727;27;20019;-34
2021/08/15 05:01:40;;;;;;;16.70;12.80;;;;;;;15.96;82.53;101531.84;5134096;27;20026;-34
2021/08/15 05:04:05;;;;;;;16.92;12.18;;;;;;;15.99;80.81;101538.69;5134429;27;20263;-34
2021/08/15 05:06:32;;;;;;;16.95;11.35;;;;;;;16.05;82.20;101534.13;5133936;28;20019;-34
2021/08/15 05:08:58;;;;;;;22.85;12.80;;;;;;;16.03;82.52;101536.28;5134387;27;20054;-34
2021/08/15 05:11:23;;;;;;;;;;;;;;;16.21;80.89;101547.75;5133942;27;20027;-34
2021/08/15 05:13:49;;;;;;;19.47;12.47;;;;;;;16.17;82.17;101546.59;5133876;28;20343;-34
2021/08/15 05:16:15;;;;;;;16.25;11.25;;;;;;;16.21;81.87;101547.75;5133749;27;20026;-34
2021/08/15 05:18:40;;;;;;;17.70;12.10;;;;;;;16.24;81.61;101551.88;5133603;27;20019;-34
2021/08/15 05:21:05;;;;;;;22.95;13.63;;;;;;;16.32;81.43;101548.72;5134104;27;20111;-34
2021/08/15 05:23:31;;;;;;;19.35;11.68;;;;;;;16.36;80.92;101541.69;5134284;27;20030;-34
2021/08/15 05:25:56;;;;;;;17.20;11.27;;;;;;;16.37;80.70;101537.03;5133881;27;20027;-34
2021/08/15 05:28:21;;;;;;;17.58;11.73;;;;;;;16.18;81.04;101506.50;5133831;27;20268;-34
2021/08/15 05:30:47;;;;;;;17.98;12.38;;;;;;;16.35;81.32;101533.75;5133280;27;20095;-34
2021/08/15 05:33:12;;;;;;;;;;;;;;;16.53;80.20;101538.88;5133904;28;20032;-34
2021/08/15 05:35:37;;;;;;;14.82;10.20;;;;;;;16.45;80.99;101526.53;5133121;28;19907;-34
2021/08/15 05:38:03;;;;;;;;;;;;;;;16.60;79.87;101528.63;5133898;27;20026;-34
2021/08/15 05:40:28;;;;;;;17.77;11.13;;;;;;;16.27;81.27;101488.63;5133817;28;19946;-34
2021/08/15 05:42:53;;;;;;;;;;;;;;;16.57;80.52;101518.19;5133718;28;20074;-34
2021/08/15 05:45:19;;;;;;;19.52;11.75;;;;;;;16.43;81.44;101530.56;5133484;28;19914;-34
2021/08/15 05:47:44;;;;;;;;;;;;;;;16.57;79.98;101529.13;5133491;28;20031;-34
2021/08/15 05:50:09;;;;;;;15.00;10.05;;;;;;;16.53;80.83;101530.69;5133595;27;19908;-34
2021/08/15 05:52:35;;;;;;;18.42;12.65;;;;;;;16.48;81.22;101522.44;5133094;28;20348;-34
2021/08/15 05:55:01;;;;;;;15.75;12.30;;;;;;;16.39;81.46;101508.41;5133312;27;20030;-34
2021/08/15 05:57:26;;;;;;;;;;;;;;;16.61;80.66;101519.34;5134029;27;20031;-34
2021/08/15 05:59:51;;;;;;;19.92;12.48;;;;;;;16.52;81.06;101512.66;5133110;27;19903;-34
2021/08/15 06:02:17;;;;;;;;;;;;;;;16.66;80.08;101516.66;5133878;27;20356;-34
2021/08/15 06:04:42;;;;;;;14.87;11.50;;;;;;;16.62;80.94;101512.78;5133122;28;20212;-34
2021/08/15 06:07:08;;;;;;;19.57;12.33;;;;;;;16.63;80.78;101508.97;5136491;27;20573;-36
2021/08/15 06:09:33;;;;;;;24.60;13.18;;;;;;;16.69;81.41;101509.88;5136875;27;20599;-36
2021/08/15 06:12:04;;;;;;;;;;;;;;;16.84;79.85;101509.25;5137840;27;20088;-36
2021/08/15 06:14:30;;;;;;;19.40;12.48;;;;;;;16.87;80.93;101504.09;5136800;27;19903;-36
2021/08/15 06:16:55;;;;;;;16.65;12.07;;;;;;;16.91;80.03;101504.41;5136726;27;20075;-36
2021/08/15 06:19:20;;;;;;;17.60;12.17;;;;;;;17.01;80.25;101496.31;5136380;27;20072;-36
2021/08/15 06:21:46;;;;;;;;;;;;;;;17.28;79.65;101499.03;5137401;27;20342;-37
2021/08/15 06:24:11;;;;;;;17.67;12.33;;;;;;;17.25;79.41;101494.09;5136816;27;19903;-36
2021/08/15 06:26:36;;;;;;;18.00;12.55;;;;;;;17.25;79.57;101497.63;5136970;27;20279;-36
2021/08/15 06:29:01;;;;;;;;;;;;;;;17.38;78.78;101498.31;5135143;27;20035;-37
2021/08/15 06:31:27;;;;;;;20.65;12.55;;;;;;;17.21;79.23;101477.38;5136844;27;20000;-37
2021/08/15 06:33:52;;;;;;;;;;;;;;;17.46;78.77;101498.63;5136059;27;20419;-37
2021/08/15 06:36:17;;;;;;;16.67;11.57;;;;;;;17.45;78.59;101504.38;5136426;27;19967;-36
2021/08/15 06:38:43;;;;;;;20.88;12.38;;;;;;;17.47;78.83;101496.72;5136056;27;20394;-37
2021/08/15 06:41:09;;;;;;;;;;;;;;;17.63;78.09;101495.75;5137519;27;20023;-36
2021/08/15 06:43:34;;;;;;;16.48;11.63;;;;;;;17.53;78.13;101479.28;5136332;27;20243;-37
2021/08/15 06:46:00;;;;;;;;;;;;;;;17.85;78.24;101481.16;5136657;27;20051;-36
2021/08/15 06:48:25;;;;;;;20.55;13.18;;;;;;;17.93;77.42;101478.75;5136629;27;20092;-34
2021/08/15 06:50:57;;;;;;;;;;;;;;;18.11;77.20;101487.63;5136694;27;20072;-34
2021/08/15 06:53:23;;;;;;;17.63;11.32;;;;;;;18.14;75.86;101482.41;5136749;27;19937;-34
2021/08/15 06:55:49;;;;;;;18.17;12.10;;;;;;;18.28;75.36;101489.06;5136108;27;20022;-36
2021/08/15 06:58:14;;;;;;;;;;;;;;;18.47;76.04;101485.84;5136212;27;20525;-37
2021/08/15 07:00:39;;;;;;;15.90;12.00;;;;;;;18.41;74.51;101463.13;5135874;27;20015;-37
2021/08/15 07:03:04;;;;;;;;;;;;;;;18.65;75.81;101485.38;5136446;27;20295;-35
2021/08/15 07:05:30;;;;;;;17.27;10.83;;;;;;;18.66;74.09;101481.53;5135995;27;20335;-36
2021/08/15 07:07:55;;;;;;;;;;;;;;;18.83;74.38;101478.59;5136518;27;20812;-35
2021/08/15 07:10:20;;;;;;;13.52;9.73;;;;;;;18.80;73.25;101472.84;5136164;27;20311;-35
2021/08/15 07:12:52;;;;;;;;;;;;;;;19.02;74.62;101473.41;5136204;27;20031;-36
2021/08/15 07:15:17;;;;;;;15.25;8.98;;;;;;;18.93;72.40;101469.56;5136523;27;20043;-36
2021/08/15 07:17:43;;;;;;;;;;;;;;;19.08;73.69;101476.97;5135152;27;20441;-36
2021/08/15 07:20:09;;;;;;;17.73;9.33;;;;;;;18.95;71.78;101462.72;5135473;27;19910;-36
2021/08/15 07:22:34;;;;;;;;;;;;;;;19.13;73.51;101466.03;5136546;27;20581;-36
2021/08/15 07:24:59;;;;;;;16.38;9.90;;;;;;;19.07;70.94;101467.94;5135265;27;19983;-35
2021/08/15 07:27:24;;;;;;;;;;;;;;;19.19;71.13;101465.78;5136392;27;20023;-36
2021/08/15 07:29:50;;;;;;;17.13;9.07;;;;;;;19.12;69.72;101478.91;5135237;27;19994;-36
2021/08/15 07:32:15;;;;;;;;;;;;;;;19.22;71.40;101484.41;5136601;27;20050;-36
2021/08/15 07:34:40;;;;;;;13.07;7.43;;;;;;;19.12;70.61;101480.81;5135140;27;19911;-36
2021/08/15 07:37:06;;;;;;;;;;;;;;;19.19;71.25;101479.47;5135583;27;20257;-36
2021/08/15 07:39:31;;;;;;;11.27;7.13;;;;;;;19.12;70.56;101467.13;5135088;27;19914;-36
2021/08/15 07:41:56;;;;;;;;;;;;;;;19.23;71.27;101477.84;5135771;27;20298;-36
2021/08/15 07:44:23;;;;;;;12.53;8.17;;;;;;;19.15;70.01;101467.41;5134927;27;19907;-36
2021/08/15 07:46:48;;;;;;;14.55;8.32;;;;;;;19.29;69.56;101474.00;5134913;27;20027;-36
2021/08/15 07:49:13;;;;;;;;;;;;;;;19.46;70.26;101479.19;5135859;27;20023;-36
2021/08/15 07:51:39;;;;;;;12.70;7.53;;;;;;;19.59;68.14;101471.50;5134892;27;20019;-36
2021/08/15 07:54:05;;;;;;;;;;;;;;;19.69;69.35;101477.84;5135043;27;20027;-36
2021/08/15 07:56:31;;;;;;;10.73;6.75;;;;;;;19.78;67.40;101470.69;5135072;27;20031;-36
2021/08/15 07:58:56;;;;;;;;;;;;;;;19.97;69.04;101470.91;5135713;27;20471;-36
2021/08/15 08:01:21;;;;;;;11.93;7.57;;;;;;;20.02;66.85;101467.34;5133796;27;19904;-36
2021/08/15 08:03:46;;;;;;;;;;;;;;;20.09;68.00;101476.09;5135044;27;20256;-36
2021/08/15 08:06:12;;;;;;;16.33;7.57;;;;;;;20.07;66.74;101464.59;5134860;27;19907;-36
2021/08/15 08:08:37;;;;;;;13.18;7.68;;;;;;;20.10;66.50;101463.19;5134653;27;20022;-36
2021/08/15 08:11:02;;;;;;;;;;;;;;;20.25;66.56;101471.38;5134732;27;20075;-36
2021/08/15 08:13:29;;;;;;;11.57;7.28;;;;;;;20.26;65.96;101451.06;5134099;27;19903;-36
2021/08/15 08:15:55;;;;;;;10.27;7.18;;;;;;;20.41;66.38;101461.97;5134636;27;20055;-38
2021/08/15 08:18:20;;;;;;;;;;;;;;;20.57;67.12;101460.81;5134824;27;20416;-36
2021/08/15 08:20:45;;;;;;;11.43;7.38;;;;;;;20.60;65.36;101453.13;5134358;27;19911;-36
2021/08/15 08:23:13;;;;;;;12.93;7.28;;;;;;;20.52;65.01;101435.28;5133944;27;20015;-36
2021/08/15 08:25:40;;;;;;;12.68;7.55;;;;;;;20.75;64.90;101455.78;5134672;27;20038;-36
2021/08/15 08:28:06;;;;;;;13.90;7.05;;;;;;;20.81;64.61;101452.69;5134334;27;20105;-36
2021/08/15 08:30:31;;;;;;;;;;;;;;;21.03;65.28;101456.94;5134773;27;20068;-36
2021/08/15 08:32:57;;;;;;;10.18;5.93;;;;;;;21.16;63.22;101448.03;5134203;27;20307;-36
2021/08/15 08:35:22;;;;;;;20.75;6.32;;;;;;;21.14;62.95;101450.28;5134618;27;20023;-36
2021/08/15 08:37:48;;;;;;;11.95;6.40;;;;;;;21.01;63.50;101449.00;5134135;27;20042;-36
2021/08/15 08:40:15;;;;;;;14.27;6.00;;;;;;;20.98;62.27;101459.72;5134542;27;20027;-36
2021/08/15 08:42:46;;;;;;;13.30;5.90;;;;;;;20.88;62.67;101448.81;5134043;27;20430;-36
2021/08/15 08:45:14;;;;;;;9.88;5.88;;;;;;;20.91;63.61;101456.50;5134091;27;20023;-36
2021/08/15 08:47:40;;;;;;;9.55;5.88;;;;;;;21.09;64.01;101456.63;5134106;27;20090;-36
2021/08/15 08:50:06;;;;;;;;;;;;;;;21.26;64.59;101461.72;5134520;27;20027;-36
2021/08/15 08:52:31;;;;;;;9.60;5.28;;;;;;;21.41;62.43;101449.78;5133102;27;19926;-36
2021/08/15 08:54:58;;;;;;;8.15;5.50;;;;;;;21.47;61.66;101445.06;5133856;27;20030;-36
2021/08/15 08:57:24;;;;;;;10.75;6.07;;;;;;;21.65;62.18;101438.81;5134126;27;20026;-36
2021/08/15 08:59:50;;;;;;;6.63;4.95;;;;;;;21.78;60.87;101451.09;5134320;27;20432;-36
2021/08/15 09:02:16;;;;;;;8.35;4.57;;;;;;;21.95;61.19;101442.34;5134204;28;20190;-36
2021/08/15 09:04:42;;;;;;;11.43;5.10;;;;;;;21.97;59.56;101437.41;5134090;27;20427;-36
2021/08/15 09:07:17;;;;;;;8.13;4.57;;;;;;;21.93;60.18;101436.34;5134323;27;20336;-36
2021/08/15 09:09:58;;;;;;;9.20;4.72;;;;;;;21.90;61.20;101431.41;5133727;27;20118;-36
2021/08/15 09:12:59;;;;;;;7.60;4.47;;;;;;;22.10;61.82;101433.91;5134206;27;20023;-36
2021/08/15 09:15:26;;;;;;;9.25;4.63;;;;;;;22.22;59.65;101433.53;5050877;28;20040;-36
2021/08/15 09:17:52;;;;;;;9.00;4.70;;;;;;;22.36;59.85;101429.75;5050881;28;20028;-36
2021/08/15 09:20:36;;;;;;;6.97;4.10;;;;;;;22.51;60.72;101422.41;5050279;28;20174;-36
2021/08/15 09:23:20;;;;;;;6.47;4.15;;;;;;;22.75;60.28;101427.84;5050274;28;20132;-36
2021/08/15 09:25:46;;;;;;;7.63;3.88;;;;;;;22.86;57.38;101421.88;5050083;28;20171;-36
2021/08/15 09:28:11;;;;;;;7.88;3.58;;;;;;;23.02;57.76;101427.16;5050535;28;20075;-36
2021/08/15 09:30:36;;;;;;;5.95;3.40;;;;;;;23.12;55.81;101419.53;5050034;28;20036;-36
2021/08/15 09:33:02;;;;;;;5.30;2.90;;;;;;;23.17;55.49;101412.28;5050799;28;20036;-36
2021/08/15 09:35:27;;;;;;;6.20;3.35;;;;;;;23.38;55.26;101417.16;5050055;28;20033;-35
2021/08/15 09:38:09;;;;;;;5.22;2.65;;;;;;;23.48;54.44;101421.69;5050338;28;20087;-35
2021/08/15 09:40:39;;;;;;;4.72;2.58;;;;;;;23.60;52.91;101415.66;5050759;28;20040;-36
2021/08/15 09:43:17;;;;;;;4.65;2.53;;;;;;;23.77;52.74;101415.94;5053652;28;20059;-36
2021/08/15 09:46:03;;;;;;;8.63;2.80;;;;;;;24.00;52.55;101418.78;5054095;28;20037;-36
2021/08/15 09:48:36;;;;;;;5.25;2.75;;;;;;;24.08;51.83;101393.19;5053013;28;20040;-36
2021/08/15 09:51:18;;;;;;;4.43;2.65;;;;;;;24.37;51.32;101404.75;5073360;27;20037;-36
2021/08/15 09:53:51;;;;;;;4.93;2.38;;;;;;;24.52;51.35;101400.81;5137715;27;20015;-36
2021/08/15 09:56:33;;;;;;;5.95;2.20;;;;;;;24.58;51.72;101401.50;5137310;27;20042;-36
2021/08/15 09:59:25;;;;;;;5.03;2.88;;;;;;;24.64;51.23;101408.56;5137316;27;20023;-36
2021/08/15 10:01:55;;;;;;;4.53;2.33;;;;;;;24.66;50.33;101395.25;5136145;27;20031;-36
2021/08/15 10:04:22;;;;;;;5.57;2.70;;;;;;;24.67;49.34;101407.94;5137085;27;20137;-36
2021/08/15 10:06:51;;;;;;;4.68;2.67;;;;;;;24.63;49.13;101384.81;5137430;27;20058;-36
2021/08/15 10:09:16;;;;;;;4.07;2.83;;;;;;;24.78;49.07;101397.44;5136916;27;20019;-36
2021/08/15 10:11:42;;;;;;;5.15;2.50;;;;;;;24.78;49.46;101392.72;5137264;27;20023;-36
2021/08/15 10:14:09;;;;;;;4.40;2.60;;;;;;;24.83;49.44;101387.06;5136859;27;20023;-36
2021/08/15 10:16:37;;;;;;;5.03;2.65;;;;;;;24.92;49.25;101390.72;5137188;27;20034;-36
2021/08/15 10:19:08;;;;;;;4.90;2.85;;;;;;;24.99;49.49;101390.31;5137224;27;20099;-36
2021/08/15 10:21:39;;;;;;;5.72;2.95;;;;;;;25.12;49.24;101391.38;5137113;27;20369;-36
2021/08/15 10:24:07;;;;;;;5.57;2.50;;;;;;;25.10;49.19;101368.75;5136907;27;20051;-36
2021/08/15 10:26:36;;;;;;;3.53;2.10;;;;;;;25.22;49.12;101374.50;5136996;27;20068;-36
2021/08/15 10:29:03;;;;;;;4.38;2.50;;;;;;;25.27;48.34;101370.78;5136221;27;20098;-36
2021/08/15 10:32:20;;;;;;;6.45;2.30;;;;;;;25.40;48.41;101365.16;5136531;27;20050;-36
2021/08/15 10:34:50;;;;;;;5.22;2.25;;;;;;;25.42;49.55;101365.66;5053101;28;20079;-36
2021/08/15 10:37:24;;;;;;;5.22;2.47;;;;;;;25.52;50.20;101363.72;5053069;28;20399;-36
2021/08/15 10:39:51;;;;;;;6.70;2.67;;;;;;;25.64;47.57;101363.97;5052793;28;20036;-36
2021/08/15 10:42:38;;;;;;;5.30;2.30;;;;;;;25.77;50.08;101357.53;5052918;28;20431;-36
2021/08/15 10:45:07;;;;;;;3.72;2.08;;;;;;;25.72;48.15;101356.81;5053076;28;20419;-36
2021/08/15 10:47:33;;;;;;;5.15;2.72;;;;;;;25.67;46.08;101352.25;5052924;28;20020;-35
2021/08/15 10:50:03;;;;;;;3.83;2.22;;;;;;;25.66;47.82;101356.13;5052418;28;20357;-35
2021/08/15 10:52:41;;;;;;;6.70;2.92;;;;;;;25.58;47.92;101356.94;5052791;28;20083;-35
2021/08/15 10:55:07;;;;;;;8.20;2.47;;;;;;;25.58;47.04;101346.69;5052430;28;20117;-35
2021/08/15 10:57:38;;;;;;;4.47;2.67;;;;;;;25.77;47.70;101352.00;5052375;28;20032;-35
2021/08/15 11:00:29;;;;;;;6.25;2.60;;;;;;;25.97;48.09;101344.22;5052376;28;20079;-35
2021/08/15 11:03:13;;;;;;;4.63;2.53;;;;;;;25.69;47.32;101344.44;5044040;28;20047;-35
2021/08/15 11:05:39;;;;;;;4.13;2.38;;;;;;;25.93;47.42;101332.97;5052102;28;20025;-35
2021/08/15 11:08:33;;;;;;;4.63;2.35;;;;;;;26.19;47.30;101347.66;5052563;28;20458;-35
2021/08/15 11:11:23;;;;;;;5.32;2.25;;;;;;;26.28;45.65;101336.59;5116463;27;20171;-35
2021/08/15 11:14:17;;;;;;;3.80;1.70;;;;;;;26.44;44.60;101340.53;5135723;27;20101;-36
2021/08/15 11:16:53;;;;;;;3.95;2.00;;;;;;;26.38;43.39;101338.22;5136114;27;20035;-36
2021/08/15 11:19:18;;;;;;;4.45;2.38;;;;;;;26.48;43.59;101329.59;5135545;27;20031;-36
2021/08/15 11:22:10;;;;;;;2.65;1.77;;;;;;;26.64;44.17;101329.91;5136029;27;20075;-36
2021/08/15 11:24:45;;;;;;;5.13;2.13;;;;;;;26.59;42.53;101324.53;5135388;27;20038;-36
2021/08/15 11:27:23;;;;;;;4.25;2.25;;;;;;;26.59;41.55;101330.06;5135386;27;20072;-36
2021/08/15 11:29:50;;;;;;;4.53;2.40;;;;;;;26.70;41.91;101339.72;5135337;27;20038;-36
2021/08/15 11:32:18;;;;;;;4.10;2.33;;;;;;;26.77;41.95;101325.34;5135623;27;20125;-36